createdAt,value
2022-10-24T00:00:28.897Z,93.30
2022-10-24T00:02:31.847Z,93.30
2022-10-24T00:04:37.744Z,93.20
2022-10-24T00:06:41.744Z,93.30
2022-10-24T00:08:46.311Z,93.20
2022-10-24T00:10:50.449Z,93.20
2022-10-24T00:12:55.293Z,93.20
2022-10-24T00:14:58.216Z,93.30
2022-10-24T00:17:01.124Z,93.20
2022-10-24T00:19:04.185Z,93.10
2022-10-24T00:21:08.306Z,93.10
2022-10-24T00:23:12.060Z,93.10
2022-10-24T00:25:16.352Z,93.10
2022-10-24T00:27:19.311Z,93.00
2022-10-24T00:29:22.213Z,93.00
2022-10-24T00:31:25.092Z,93.00
2022-10-24T00:33:28.522Z,92.90
2022-10-24T00:35:31.510Z,92.90
2022-10-24T00:37:34.335Z,92.80
2022-10-24T00:39:37.238Z,92.80
2022-10-24T00:41:43.714Z,92.80
2022-10-24T00:43:46.896Z,92.80
2022-10-24T00:45:51.491Z,92.70
2022-10-24T00:47:54.343Z,92.60
2022-10-24T00:50:00.861Z,92.40
2022-10-24T00:52:06.715Z,92.40
2022-10-24T00:54:13.294Z,92.50
2022-10-24T00:56:17.609Z,92.50
2022-10-24T00:58:23.242Z,92.50
2022-10-24T01:00:28.894Z,92.40
2022-10-24T01:02:31.844Z,92.50
2022-10-24T01:07:02.522Z,92.30
2022-10-24T01:09:17.726Z,92.30
2022-10-24T01:11:34.122Z,92.30
2022-10-24T01:13:48.740Z,92.40
2022-10-24T01:15:56.821Z,92.40
2022-10-24T01:18:07.870Z,92.60
2022-10-24T01:21:02.007Z,92.50
2022-10-24T01:23:18.441Z,92.60
2022-10-24T01:25:32.851Z,92.70
2022-10-24T01:27:48.085Z,92.80
2022-10-24T01:30:01.739Z,93.00
2022-10-24T01:32:11.098Z,93.20
2022-10-24T01:34:21.795Z,93.10
2022-10-24T01:36:32.793Z,93.10
2022-10-24T01:38:42.419Z,93.20
2022-10-24T01:40:52.472Z,93.20
2022-10-24T01:43:00.569Z,93.20
2022-10-24T01:45:06.817Z,93.10
2022-10-24T01:47:13.528Z,93.10
2022-10-24T01:49:19.397Z,93.10
2022-10-24T01:51:27.597Z,93.10
2022-10-24T01:53:31.712Z,93.10
2022-10-24T01:55:34.864Z,93.10
2022-10-24T01:57:38.903Z,93.10
2022-10-24T01:59:47.716Z,93.10
2022-10-24T02:01:53.117Z,93.20
2022-10-24T02:03:59.167Z,93.20
2022-10-24T02:06:07.995Z,93.20
2022-10-24T02:08:14.942Z,93.20
2022-10-24T02:10:22.056Z,93.10
2022-10-24T02:12:27.617Z,93.00
2022-10-24T02:14:35.209Z,93.10
2022-10-24T02:16:38.318Z,93.10
2022-10-24T02:18:43.202Z,93.00
2022-10-24T02:20:53.463Z,93.00
2022-10-24T02:23:02.172Z,93.00
2022-10-24T02:25:10.159Z,92.80
2022-10-24T02:27:17.121Z,92.70
2022-10-24T02:29:25.383Z,92.70
2022-10-24T02:31:34.017Z,92.70
2022-10-24T02:33:40.254Z,92.70
2022-10-24T02:35:47.005Z,92.50
2022-10-24T02:37:52.824Z,92.50
2022-10-24T02:39:58.093Z,92.50
2022-10-24T02:42:02.657Z,92.40
2022-10-24T02:44:06.902Z,92.50
2022-10-24T02:46:12.101Z,92.50
2022-10-24T02:48:19.602Z,92.50
2022-10-24T02:50:23.047Z,92.40
2022-10-24T02:52:27.711Z,92.30
2022-10-24T02:54:30.600Z,92.40
2022-10-24T02:56:34.010Z,92.30
2022-10-24T02:58:37.050Z,92.30
2022-10-24T03:00:40.050Z,92.30
2022-10-24T03:02:43.307Z,92.40
2022-10-24T03:04:46.586Z,92.30
2022-10-24T03:06:49.607Z,92.30
2022-10-24T03:08:54.007Z,92.30
2022-10-24T03:10:57.063Z,92.20
2022-10-24T03:13:00.757Z,92.20
2022-10-24T03:15:04.083Z,92.20
2022-10-24T03:17:06.988Z,92.20
2022-10-24T03:19:09.903Z,92.20
2022-10-24T03:21:12.941Z,92.10
2022-10-24T03:23:16.511Z,92.10
2022-10-24T03:25:20.855Z,92.30
2022-10-24T03:27:24.280Z,92.00
2022-10-24T03:29:27.209Z,91.90
2022-10-24T03:31:30.741Z,91.90
2022-10-24T03:33:34.113Z,91.90
2022-10-24T03:35:37.418Z,91.90
2022-10-24T03:37:40.573Z,91.90
2022-10-24T03:39:43.530Z,91.90
2022-10-24T03:41:47.758Z,92.00
2022-10-24T03:43:50.820Z,91.90
2022-10-24T03:45:53.701Z,92.00
2022-10-24T03:47:56.571Z,91.90
2022-10-24T03:49:59.518Z,91.80
2022-10-24T03:52:02.468Z,91.90
2022-10-24T03:54:05.486Z,92.10
2022-10-24T03:56:09.244Z,92.20
2022-10-24T03:58:13.479Z,92.30
2022-10-24T04:00:18.916Z,92.20
2022-10-24T04:02:21.931Z,92.20
2022-10-24T04:04:24.970Z,92.50
2022-10-24T04:06:30.274Z,92.10
2022-10-24T04:08:35.493Z,92.30
2022-10-24T04:10:38.337Z,92.40
2022-10-24T04:12:41.290Z,92.40
2022-10-24T04:14:45.597Z,92.20
2022-10-24T04:16:49.129Z,92.10
2022-10-24T04:18:52.336Z,92.10
2022-10-24T04:20:55.315Z,92.10
2022-10-24T04:23:00.067Z,92.00
2022-10-24T04:25:06.050Z,91.90
2022-10-24T04:27:09.845Z,92.00
2022-10-24T04:29:13.036Z,92.00
2022-10-24T04:31:20.950Z,92.10
2022-10-24T04:33:26.700Z,92.10
2022-10-24T04:35:29.698Z,92.00
2022-10-24T04:37:32.900Z,92.10
2022-10-24T04:39:35.838Z,92.10
2022-10-24T04:41:38.839Z,92.00
2022-10-24T04:43:41.982Z,92.00
2022-10-24T04:45:44.963Z,92.00
2022-10-24T04:47:49.207Z,92.00
2022-10-24T04:49:52.125Z,92.00
2022-10-24T04:51:54.990Z,92.10
2022-10-24T04:53:58.020Z,92.10
2022-10-24T04:56:01.068Z,92.10
2022-10-24T04:58:04.023Z,92.10
2022-10-24T05:00:08.450Z,92.10
2022-10-24T05:02:11.602Z,92.30
2022-10-24T05:04:16.139Z,92.20
2022-10-24T05:06:18.997Z,92.30
2022-10-24T05:08:22.085Z,92.20
2022-10-24T05:10:25.043Z,92.30
2022-10-24T05:12:28.064Z,92.20
2022-10-24T05:14:31.255Z,92.20
2022-10-24T05:16:34.232Z,92.10
2022-10-24T05:18:37.597Z,92.10
2022-10-24T05:20:41.948Z,92.10
2022-10-24T05:22:45.086Z,92.20
2022-10-24T05:24:48.270Z,92.30
2022-10-24T05:26:51.326Z,92.30
2022-10-24T05:28:54.389Z,92.30
2022-10-24T05:30:57.355Z,92.40
2022-10-24T05:33:00.364Z,92.50
2022-10-24T05:35:03.300Z,92.40
2022-10-24T05:37:07.598Z,92.40
2022-10-24T05:39:10.493Z,92.40
2022-10-24T05:41:13.343Z,92.50
2022-10-24T05:43:16.827Z,92.80
2022-10-24T05:45:20.486Z,93.10
2022-10-24T05:47:25.697Z,93.10
2022-10-24T05:49:31.376Z,93.10
2022-10-24T05:51:34.854Z,93.20
2022-10-24T05:53:39.087Z,93.20
2022-10-24T05:55:42.020Z,93.10
2022-10-24T05:57:45.443Z,93.00
2022-10-24T05:59:48.521Z,93.00
2022-10-24T06:01:51.543Z,93.00
2022-10-24T06:03:54.861Z,92.90
2022-10-24T06:05:57.723Z,92.90
2022-10-24T06:08:00.655Z,93.00
2022-10-24T06:10:07.813Z,93.20
2022-10-24T06:12:11.791Z,92.90
2022-10-24T06:14:14.799Z,92.90
2022-10-24T06:16:17.668Z,92.90
2022-10-24T06:18:20.600Z,93.00
2022-10-24T06:20:23.538Z,93.00
2022-10-24T06:22:29.543Z,93.00
2022-10-24T06:24:32.556Z,93.00
2022-10-24T06:26:36.810Z,93.00
2022-10-24T06:28:40.288Z,93.00
2022-10-24T06:30:43.980Z,93.00
2022-10-24T06:32:47.404Z,93.00
2022-10-24T06:34:51.185Z,93.10
2022-10-24T06:36:54.101Z,93.10
2022-10-24T06:38:57.746Z,93.00
2022-10-24T06:41:00.646Z,92.90
2022-10-24T06:43:04.937Z,92.90
2022-10-24T06:45:08.446Z,92.90
2022-10-24T06:47:11.345Z,93.00
2022-10-24T06:49:15.242Z,92.90
2022-10-24T06:51:18.145Z,93.00
2022-10-24T06:55:24.022Z,93.20
2022-10-24T06:57:27.086Z,93.20
2022-10-24T06:59:31.338Z,93.20
2022-10-24T07:01:35.694Z,93.30
2022-10-24T07:03:39.353Z,93.40
2022-10-24T07:05:42.408Z,93.40
2022-10-24T07:07:45.873Z,93.50
2022-10-24T07:09:53.845Z,93.70
2022-10-24T07:11:56.690Z,93.80
2022-10-24T07:14:00.878Z,93.80
2022-10-24T07:16:07.116Z,93.70
2022-10-24T07:18:15.903Z,93.70
2022-10-24T07:20:19.041Z,93.70
2022-10-24T07:22:22.216Z,93.70
2022-10-24T07:24:25.525Z,93.60
2022-10-24T07:26:29.861Z,93.70
2022-10-24T07:28:33.859Z,93.90
2022-10-24T07:30:36.782Z,93.80
2022-10-24T07:32:41.093Z,93.80
2022-10-24T07:34:44.109Z,93.70
2022-10-24T07:36:47.001Z,93.80
2022-10-24T07:38:50.655Z,94.10
2022-10-24T07:40:53.845Z,94.00
2022-10-24T07:42:56.675Z,94.10
2022-10-24T07:44:59.588Z,94.20
2022-10-24T07:47:06.728Z,94.30
2022-10-24T07:49:11.192Z,94.40
2022-10-24T07:51:15.735Z,94.50
2022-10-24T07:53:19.182Z,94.60
2022-10-24T07:55:22.105Z,94.50
2022-10-24T07:57:25.520Z,94.60
2022-10-24T07:59:41.717Z,94.50
2022-10-24T08:01:45.292Z,94.50
2022-10-24T08:03:48.723Z,94.60
2022-10-24T08:05:56.951Z,94.70
2022-10-24T08:08:11.946Z,94.70
2022-10-24T08:10:23.329Z,94.70
2022-10-24T08:12:26.464Z,94.70
2022-10-24T08:14:29.367Z,94.60
2022-10-24T08:16:32.377Z,94.70
2022-10-24T08:18:39.427Z,94.70
2022-10-24T08:20:42.755Z,94.70
2022-10-24T08:22:47.567Z,94.60
2022-10-24T08:24:50.586Z,94.70
2022-10-24T08:26:55.833Z,94.70
2022-10-24T08:28:58.837Z,94.70
2022-10-24T08:31:03.765Z,94.80
2022-10-24T08:33:06.808Z,94.60
2022-10-24T08:35:10.344Z,94.60
2022-10-24T08:37:13.288Z,94.70
2022-10-24T08:39:18.423Z,94.50
2022-10-24T08:41:28.388Z,94.60
2022-10-24T08:43:31.246Z,94.50
2022-10-24T08:45:39.701Z,94.50
2022-10-24T08:47:48.598Z,94.40
2022-10-24T08:49:56.093Z,94.50
2022-10-24T08:52:02.364Z,94.40
2022-10-24T08:54:07.502Z,94.30
2022-10-24T08:56:13.594Z,94.40
2022-10-24T08:58:19.325Z,94.50
2022-10-24T09:00:24.856Z,94.50
2022-10-24T09:02:31.821Z,94.40
2022-10-24T09:04:41.369Z,94.40
2022-10-24T09:06:45.788Z,94.30
2022-10-24T09:08:53.747Z,94.30
2022-10-24T09:11:00.007Z,94.30
2022-10-24T09:13:09.573Z,94.20
2022-10-24T09:15:25.837Z,94.30
2022-10-24T09:17:32.454Z,94.20
2022-10-24T09:19:35.359Z,94.10
2022-10-24T09:21:41.218Z,94.20
2022-10-24T09:23:45.800Z,94.10
2022-10-24T09:25:52.525Z,94.00
2022-10-24T09:27:55.572Z,93.90
2022-10-24T09:30:00.601Z,93.80
2022-10-24T09:32:04.283Z,93.60
2022-10-24T09:34:07.245Z,93.90
2022-10-24T09:36:13.700Z,93.60
2022-10-24T09:38:28.872Z,93.60
2022-10-24T09:40:34.656Z,93.70
2022-10-24T09:42:39.708Z,93.80
2022-10-24T09:44:43.835Z,93.70
2022-10-24T09:46:48.483Z,93.60
2022-10-24T09:48:54.813Z,93.40
2022-10-24T09:50:58.454Z,93.40
2022-10-24T09:53:03.342Z,93.50
2022-10-24T09:55:17.413Z,93.60
2022-10-24T09:57:21.442Z,93.60
2022-10-24T09:59:42.248Z,93.40
2022-10-24T10:01:45.665Z,93.50
2022-10-24T10:04:08.416Z,93.30
2022-10-24T10:06:17.385Z,93.20
2022-10-24T10:08:23.073Z,93.10
2022-10-24T10:10:32.723Z,93.00
2022-10-24T10:12:38.193Z,93.00
2022-10-24T10:14:42.757Z,93.00
2022-10-24T10:16:46.641Z,93.00
2022-10-24T10:18:51.210Z,92.80
2022-10-24T10:21:10.222Z,92.70
2022-10-24T10:23:19.020Z,92.70
2022-10-24T10:25:30.897Z,92.90
2022-10-24T10:27:37.427Z,92.70
2022-10-24T10:29:40.278Z,92.80
2022-10-24T10:31:46.733Z,92.70
2022-10-24T10:34:03.087Z,92.50
2022-10-24T10:36:13.093Z,92.60
2022-10-24T10:38:41.755Z,92.60
2022-10-24T10:40:47.177Z,92.30
2022-10-24T10:43:15.779Z,92.30
2022-10-24T10:45:33.275Z,92.20
2022-10-24T10:47:49.599Z,92.10
2022-10-24T10:49:58.721Z,92.10
2022-10-24T10:52:07.503Z,92.10
2022-10-24T10:54:23.401Z,92.00
2022-10-24T10:56:35.835Z,92.10
2022-10-24T10:58:48.837Z,91.90
2022-10-24T11:00:58.811Z,91.70
2022-10-24T11:03:17.990Z,91.70
2022-10-24T11:05:34.359Z,91.70
2022-10-24T11:07:45.964Z,91.40
2022-10-24T11:09:50.923Z,91.50
2022-10-24T11:12:00.639Z,90.70
2022-10-24T11:14:20.123Z,90.80
2022-10-24T11:16:26.869Z,90.60
2022-10-24T11:18:35.700Z,90.80
2022-10-24T11:20:43.837Z,90.50
2022-10-24T11:22:51.934Z,90.10
2022-10-24T11:25:01.628Z,90.10
2022-10-24T11:27:09.850Z,90.20
2022-10-24T11:29:21.126Z,90.20
2022-10-24T11:31:27.429Z,90.00
2022-10-24T11:33:36.395Z,90.00
2022-10-24T11:35:54.160Z,89.00
2022-10-24T11:38:02.798Z,89.60
2022-10-24T11:40:12.221Z,89.00
2022-10-24T11:42:22.516Z,89.50
2022-10-24T11:44:37.144Z,90.00
2022-10-24T11:46:51.752Z,90.10
2022-10-24T11:49:00.497Z,89.40
2022-10-24T11:51:14.754Z,89.40
2022-10-24T11:53:47.158Z,88.30
2022-10-24T11:56:02.304Z,88.70
2022-10-24T11:58:10.581Z,89.20
2022-10-24T12:00:21.521Z,88.00
2022-10-24T12:02:58.142Z,86.50
2022-10-24T12:05:42.469Z,86.30
2022-10-24T12:08:14.515Z,86.90
2022-10-24T12:10:45.303Z,85.70
2022-10-24T12:13:14.374Z,85.70
2022-10-24T12:15:39.105Z,85.30
2022-10-24T12:18:07.746Z,85.10
2022-10-24T12:20:16.278Z,85.30
2022-10-24T12:24:39.262Z,85.00
2022-10-24T12:26:58.060Z,84.40
2022-10-24T12:29:04.540Z,83.70
2022-10-24T12:31:26.153Z,84.40
2022-10-24T12:33:31.336Z,84.80
2022-10-24T12:35:57.789Z,83.40
2022-10-24T12:38:02.735Z,83.30
2022-10-24T12:40:43.757Z,83.70
2022-10-24T12:43:19.517Z,83.90
2022-10-24T12:45:34.445Z,84.10
2022-10-24T12:47:41.789Z,82.80
2022-10-24T12:49:51.882Z,82.50
2022-10-24T12:51:57.635Z,82.40
2022-10-24T12:54:07.354Z,82.60
2022-10-24T12:56:20.248Z,82.80
2022-10-24T12:58:30.662Z,83.10
2022-10-24T13:00:42.110Z,82.60
2022-10-24T13:03:04.845Z,82.60
2022-10-24T13:05:23.130Z,82.60
2022-10-24T13:08:02.465Z,83.40
2022-10-24T13:10:26.046Z,83.20
2022-10-24T13:12:47.729Z,83.20
2022-10-24T13:15:16.038Z,82.30
2022-10-24T13:17:31.498Z,82.30
2022-10-24T13:19:35.974Z,81.80
2022-10-24T13:21:48.866Z,81.50
2022-10-24T13:23:53.850Z,81.80
2022-10-24T13:26:01.611Z,82.20
2022-10-24T13:28:44.249Z,82.10
2022-10-24T13:30:50.044Z,81.40
2022-10-24T13:33:13.122Z,81.10
2022-10-24T13:35:24.200Z,81.40
2022-10-24T13:37:30.193Z,82.00
2022-10-24T13:39:39.478Z,81.40
2022-10-24T13:41:48.144Z,80.40
2022-10-24T13:43:54.628Z,81.20
2022-10-24T13:46:08.263Z,80.90
2022-10-24T13:48:18.818Z,80.30
2022-10-24T13:50:25.930Z,79.80
2022-10-24T13:52:37.982Z,79.50
2022-10-24T13:54:43.734Z,78.70
2022-10-24T13:56:48.276Z,78.80
2022-10-24T13:58:51.417Z,77.90
2022-10-24T14:00:59.183Z,77.80
2022-10-24T14:03:05.648Z,78.30
2022-10-24T14:05:18.892Z,77.80
2022-10-24T14:07:24.908Z,77.50
2022-10-24T14:09:28.028Z,77.50
2022-10-24T14:11:32.440Z,78.30
2022-10-24T14:13:41.086Z,78.00
2022-10-24T14:15:48.820Z,77.20
2022-10-24T14:18:00.742Z,77.30
2022-10-24T14:20:23.201Z,77.50
2022-10-24T14:22:29.284Z,78.10
2022-10-24T14:24:32.998Z,78.50
2022-10-24T14:28:45.408Z,77.90
2022-10-24T14:30:55.424Z,78.20
2022-10-24T14:33:23.323Z,78.40
2022-10-24T14:35:28.471Z,78.60
2022-10-24T14:37:35.899Z,78.50
2022-10-24T14:39:40.322Z,79.10
2022-10-24T14:41:43.670Z,78.80
2022-10-24T14:43:47.401Z,78.50
2022-10-24T14:46:06.992Z,79.20
2022-10-24T14:48:23.778Z,79.20
2022-10-24T14:50:40.672Z,79.10
2022-10-24T14:52:46.965Z,79.40
2022-10-24T14:54:58.764Z,79.30
2022-10-24T14:57:03.426Z,78.90
2022-10-24T14:59:08.146Z,79.10
2022-10-24T15:01:18.353Z,79.20
2022-10-24T15:03:22.100Z,79.20
2022-10-24T15:05:31.605Z,79.30
2022-10-24T15:07:40.717Z,79.40
2022-10-24T15:09:56.264Z,79.90
2022-10-24T15:12:03.761Z,80.20
2022-10-24T15:14:07.568Z,80.30
2022-10-24T15:16:22.267Z,80.40
2022-10-24T15:18:27.636Z,79.90
2022-10-24T15:20:35.663Z,80.00
2022-10-24T15:22:40.512Z,79.80
2022-10-24T15:24:44.501Z,80.20
2022-10-24T15:26:47.405Z,80.10
2022-10-24T15:28:54.546Z,80.40
2022-10-24T15:30:57.497Z,80.50
2022-10-24T15:33:02.613Z,80.40
2022-10-24T15:35:06.346Z,80.80
2022-10-24T15:37:19.195Z,80.70
2022-10-24T15:39:24.799Z,80.40
2022-10-24T15:41:28.918Z,80.50
2022-10-24T15:43:31.874Z,80.30
2022-10-24T15:45:34.710Z,80.30
2022-10-24T15:47:37.736Z,80.40
2022-10-24T15:49:40.795Z,80.20
2022-10-24T15:51:49.108Z,80.30
2022-10-24T15:53:54.317Z,80.30
2022-10-24T15:55:58.719Z,80.40
2022-10-24T15:58:01.700Z,80.10
2022-10-24T16:00:05.421Z,80.00
2022-10-24T16:02:17.124Z,79.70
2022-10-24T16:04:21.754Z,80.10
2022-10-24T16:06:24.679Z,79.80
2022-10-24T16:08:27.779Z,79.70
2022-10-24T16:10:30.846Z,79.40
2022-10-24T16:12:35.181Z,79.90
2022-10-24T16:14:38.132Z,79.40
2022-10-24T16:16:41.150Z,79.10
2022-10-24T16:18:44.138Z,79.20
2022-10-24T16:20:47.202Z,78.30
2022-10-24T16:22:50.801Z,78.70
2022-10-24T16:24:54.264Z,79.20
2022-10-24T16:26:57.962Z,78.90
2022-10-24T16:29:02.184Z,79.10
2022-10-24T16:31:06.618Z,78.70
2022-10-24T16:33:09.689Z,78.40
2022-10-24T16:35:16.806Z,78.70
2022-10-24T16:37:20.372Z,78.60
2022-10-24T16:39:24.151Z,77.60
2022-10-24T16:41:28.009Z,78.50
2022-10-24T16:43:31.455Z,78.50
2022-10-24T16:45:35.671Z,78.30
2022-10-24T16:47:38.663Z,78.40
2022-10-24T16:49:41.668Z,78.40
2022-10-24T16:51:46.325Z,78.50
2022-10-24T16:53:49.424Z,78.50
2022-10-24T16:55:54.154Z,78.80
2022-10-24T16:57:57.546Z,79.10
2022-10-24T17:00:00.612Z,79.10
2022-10-24T17:02:05.006Z,79.20
2022-10-24T17:04:08.669Z,79.20
2022-10-24T17:06:12.281Z,79.50
2022-10-24T17:08:15.960Z,79.30
2022-10-24T17:10:22.165Z,79.40
2022-10-24T17:12:28.260Z,79.60
2022-10-24T17:14:32.816Z,79.20
2022-10-24T17:16:35.859Z,79.90
2022-10-24T17:18:40.103Z,79.60
2022-10-24T17:20:44.220Z,79.70
2022-10-24T17:22:47.987Z,80.00
2022-10-24T17:24:51.189Z,79.60
2022-10-24T17:26:54.730Z,79.90
2022-10-24T17:28:57.872Z,80.90
2022-10-24T17:31:01.024Z,80.20
2022-10-24T17:33:04.189Z,80.40
2022-10-24T17:35:11.275Z,80.30
2022-10-24T17:37:21.253Z,80.50
2022-10-24T17:39:28.118Z,80.30
2022-10-24T17:41:36.492Z,80.40
2022-10-24T17:43:39.742Z,80.50
2022-10-24T17:45:43.273Z,80.30
2022-10-24T17:49:54.201Z,80.00
2022-10-24T17:51:58.523Z,79.50
2022-10-24T17:54:02.053Z,80.00
2022-10-24T17:56:05.310Z,79.20
2022-10-24T17:58:09.254Z,79.20
2022-10-24T18:00:13.660Z,79.20
2022-10-24T18:02:16.685Z,79.00
2022-10-24T18:04:19.774Z,79.30
2022-10-24T18:06:22.803Z,79.00
2022-10-24T18:08:27.207Z,79.20
2022-10-24T18:10:30.164Z,79.30
2022-10-24T18:12:34.609Z,79.20
2022-10-24T18:14:38.133Z,79.40
2022-10-24T18:16:41.442Z,79.70
2022-10-24T18:18:46.025Z,79.50
2022-10-24T18:20:49.212Z,80.20
2022-10-24T18:22:52.680Z,80.10
2022-10-24T18:24:56.900Z,80.10
2022-10-24T18:26:59.897Z,80.00
2022-10-24T18:29:02.926Z,79.60
2022-10-24T18:31:10.765Z,79.60
2022-10-24T18:33:14.152Z,80.00
2022-10-24T18:35:17.072Z,80.10
2022-10-24T18:37:20.684Z,79.90
2022-10-24T18:39:26.276Z,80.20
2022-10-24T18:41:42.268Z,80.20
2022-10-24T18:43:45.446Z,80.10
2022-10-24T18:45:51.573Z,79.80
2022-10-24T18:47:55.121Z,79.90
2022-10-24T18:49:58.536Z,80.00
2022-10-24T18:52:17.164Z,79.80
2022-10-24T18:54:22.168Z,79.70
2022-10-24T18:56:25.303Z,80.10
2022-10-24T18:58:30.142Z,80.00
2022-10-24T19:00:37.958Z,80.10
2022-10-24T19:02:49.260Z,80.00
2022-10-24T19:05:00.376Z,79.90
2022-10-24T19:07:04.146Z,80.00
2022-10-24T19:09:16.767Z,79.90
2022-10-24T19:11:19.965Z,80.20
2022-10-24T19:13:24.260Z,79.90
2022-10-24T19:15:29.494Z,80.00
2022-10-24T19:17:32.511Z,80.20
2022-10-24T19:19:35.974Z,80.00
2022-10-24T19:21:38.957Z,80.20
2022-10-24T19:23:41.880Z,80.20
2022-10-24T19:25:45.542Z,80.20
2022-10-24T19:27:49.461Z,80.50
2022-10-24T19:29:52.520Z,80.50
2022-10-24T19:31:56.873Z,80.40
2022-10-24T19:33:59.859Z,80.50
2022-10-24T19:36:03.900Z,80.50
2022-10-24T19:38:07.193Z,80.60
2022-10-24T19:40:11.222Z,80.40
2022-10-24T19:42:14.250Z,80.40
2022-10-24T19:44:17.194Z,80.50
2022-10-24T19:46:20.752Z,80.60
2022-10-24T19:48:25.239Z,80.90
2022-10-24T19:50:28.373Z,80.80
2022-10-24T19:52:31.232Z,80.60
2022-10-24T19:54:34.199Z,80.70
2022-10-24T19:56:37.100Z,80.80
2022-10-24T19:58:41.406Z,80.80
2022-10-24T20:00:44.341Z,80.80
2022-10-24T20:02:47.581Z,80.80
2022-10-24T20:04:52.025Z,81.00
2022-10-24T20:06:54.880Z,80.80
2022-10-24T20:09:00.306Z,80.60
2022-10-24T20:11:03.838Z,80.80
2022-10-24T20:13:06.866Z,80.90
2022-10-24T20:15:13.715Z,81.00
2022-10-24T20:17:16.732Z,81.00
2022-10-24T20:19:19.826Z,80.70
2022-10-24T20:21:24.309Z,80.80
2022-10-24T20:23:27.378Z,80.70
2022-10-24T20:25:30.252Z,80.70
2022-10-24T20:27:33.444Z,80.80
2022-10-24T20:29:37.882Z,80.70
2022-10-24T20:31:44.746Z,81.00
2022-10-24T20:33:47.884Z,81.20
2022-10-24T20:35:50.850Z,81.10
2022-10-24T20:37:55.152Z,81.00
2022-10-24T20:39:58.589Z,81.10
2022-10-24T20:42:01.453Z,81.00
2022-10-24T20:44:06.960Z,81.70
2022-10-24T20:46:10.379Z,81.10
2022-10-24T20:48:13.290Z,80.90
2022-10-24T20:50:16.379Z,80.90
2022-10-24T20:52:19.305Z,81.20
2022-10-24T20:54:23.683Z,81.00
2022-10-24T20:56:27.124Z,81.20
2022-10-24T20:58:29.979Z,81.00
2022-10-24T21:00:33.190Z,81.50
2022-10-24T21:02:36.761Z,81.20
2022-10-24T21:04:39.901Z,81.40
2022-10-24T21:06:43.076Z,81.20
2022-10-24T21:08:48.106Z,81.40
2022-10-24T21:10:52.640Z,81.40
2022-10-24T21:12:55.528Z,81.30
2022-10-24T21:14:58.655Z,81.40
2022-10-24T21:17:01.580Z,81.50
2022-10-24T21:19:05.294Z,81.40
2022-10-24T21:21:09.760Z,81.60
2022-10-24T21:23:13.197Z,81.40
2022-10-24T21:25:16.254Z,81.60
2022-10-24T21:27:20.639Z,81.50
2022-10-24T21:29:39.102Z,81.40
2022-10-24T21:31:42.057Z,81.60
2022-10-24T21:33:45.369Z,81.70
2022-10-24T21:35:48.378Z,81.80
2022-10-24T21:37:51.254Z,81.80
2022-10-24T21:39:54.148Z,81.70
2022-10-24T21:41:57.041Z,81.90
2022-10-24T21:44:01.317Z,82.10
2022-10-24T21:46:06.179Z,82.50
2022-10-24T21:48:09.266Z,82.70
2022-10-24T21:50:12.269Z,82.60
2022-10-24T21:52:15.689Z,82.60
2022-10-24T21:54:21.411Z,82.60
2022-10-24T21:56:26.408Z,82.80
2022-10-24T21:58:29.389Z,82.80
2022-10-24T22:00:35.638Z,82.50
2022-10-24T22:02:41.395Z,82.70
2022-10-24T22:04:44.548Z,82.60
2022-10-24T22:06:47.633Z,82.60
2022-10-24T22:08:52.432Z,82.60
2022-10-24T22:10:59.755Z,82.70
2022-10-24T22:13:02.668Z,82.70
2022-10-24T22:15:06.390Z,82.70
2022-10-24T22:17:10.653Z,82.80
2022-10-24T22:19:14.936Z,82.60
2022-10-24T22:21:25.298Z,82.90
2022-10-24T22:23:29.324Z,82.90
2022-10-24T22:25:32.529Z,82.90
2022-10-24T22:27:35.462Z,82.90
2022-10-24T22:29:38.322Z,83.00
2022-10-24T22:31:41.990Z,82.90
2022-10-24T22:33:46.596Z,83.10
2022-10-24T22:35:57.069Z,82.80
2022-10-24T22:38:00.544Z,82.80
2022-10-24T22:40:04.314Z,83.20
2022-10-24T22:42:08.478Z,83.20
2022-10-24T22:44:13.152Z,83.10
2022-10-24T22:46:27.493Z,83.30
2022-10-24T22:48:34.644Z,83.10
2022-10-24T22:50:50.695Z,83.20
2022-10-24T22:52:54.347Z,83.40
2022-10-24T22:54:57.937Z,83.40
2022-10-24T22:57:01.436Z,83.40
2022-10-24T22:59:04.852Z,83.50
2022-10-24T23:01:18.055Z,83.80
2022-10-24T23:03:26.682Z,84.00
2022-10-24T23:05:34.477Z,84.00
2022-10-24T23:07:46.817Z,84.10
2022-10-24T23:09:49.880Z,84.30
2022-10-24T23:11:53.535Z,84.30
2022-10-24T23:13:57.448Z,84.60
2022-10-24T23:16:07.541Z,84.60
2022-10-24T23:18:11.232Z,84.50
2022-10-24T23:20:22.903Z,84.60
2022-10-24T23:22:27.763Z,84.80
2022-10-24T23:24:32.624Z,84.60
2022-10-24T23:26:43.866Z,84.60
2022-10-24T23:28:52.975Z,84.80
2022-10-24T23:30:56.485Z,84.90
2022-10-24T23:33:00.021Z,85.00
2022-10-24T23:35:03.563Z,85.10
2022-10-24T23:37:07.568Z,85.20
2022-10-24T23:39:13.126Z,85.10
2022-10-24T23:41:18.298Z,85.10
2022-10-24T23:43:23.112Z,85.20
2022-10-24T23:45:28.095Z,85.20
2022-10-24T23:47:47.668Z,85.30
2022-10-24T23:49:56.446Z,86.00
2022-10-24T23:52:06.443Z,85.30
2022-10-24T23:54:11.298Z,85.50
2022-10-24T23:56:14.647Z,85.50
2022-10-24T23:58:19.082Z,85.60
